sensor_id;sensor_type;location;lat;lon;timestamp;pressure;altitude;pressure_sealevel;temperature;humidity
44934;BME280;30667;43.614;1.442;2023-05-25T00:02:04;99937.97;;;17.35;100.00
44934;BME280;30667;43.614;1.442;2023-05-25T00:04:30;99928.19;;;17.34;100.00
44934;BME280;30667;43.614;1.442;2023-05-25T00:06:59;99931.06;;;17.29;100.00
44934;BME280;30667;43.614;1.442;2023-05-25T00:09:24;99928.53;;;17.24;100.00
44934;BME280;30667;43.614;1.442;2023-05-25T00:11:50;99921.13;;;17.16;100.00
44934;BME280;30667;43.614;1.442;2023-05-25T00:14:16;99927.25;;;17.13;100.00
44934;BME280;30667;43.614;1.442;2023-05-25T00:16:42;99931.28;;;17.06;100.00
44934;BME280;30667;43.614;1.442;2023-05-25T00:19:08;99930.81;;;17.04;100.00
44934;BME280;30667;43.614;1.442;2023-05-25T00:21:34;99929.50;;;17.02;100.00
44934;BME280;30667;43.614;1.442;2023-05-25T00:24:03;99937.09;;;16.96;100.00
44934;BME280;30667;43.614;1.442;2023-05-25T00:26:28;99925.81;;;16.89;100.00
44934;BME280;30667;43.614;1.442;2023-05-25T00:28:54;99927.06;;;16.83;100.00
44934;BME280;30667;43.614;1.442;2023-05-25T00:31:19;99929.34;;;16.72;100.00
44934;BME280;30667;43.614;1.442;2023-05-25T00:33:44;99936.56;;;16.77;100.00
44934;BME280;30667;43.614;1.442;2023-05-25T00:36:10;99929.19;;;16.77;100.00
44934;BME280;30667;43.614;1.442;2023-05-25T00:38:35;99919.69;;;16.66;100.00
44934;BME280;30667;43.614;1.442;2023-05-25T00:41:01;99935.78;;;16.67;100.00
44934;BME280;30667;43.614;1.442;2023-05-25T00:43:26;99928.84;;;16.61;100.00
44934;BME280;30667;43.614;1.442;2023-05-25T00:45:52;99936.88;;;16.66;100.00
44934;BME280;30667;43.614;1.442;2023-05-25T00:48:18;99936.25;;;16.69;100.00
44934;BME280;30667;43.614;1.442;2023-05-25T00:50:44;99933.69;;;16.64;100.00
44934;BME280;30667;43.614;1.442;2023-05-25T00:53:10;99934.63;;;16.60;100.00
44934;BME280;30667;43.614;1.442;2023-05-25T00:56:07;99935.75;;;16.59;100.00
44934;BME280;30667;43.614;1.442;2023-05-25T00:58:38;99937.03;;;16.52;100.00
44934;BME280;30667;43.614;1.442;2023-05-25T01:01:05;99930.09;;;16.46;100.00
44934;BME280;30667;43.614;1.442;2023-05-25T01:03:39;99931.09;;;16.50;100.00
44934;BME280;30667;43.614;1.442;2023-05-25T01:06:10;99937.03;;;16.52;100.00
44934;BME280;30667;43.614;1.442;2023-05-25T01:08:39;99936.06;;;16.48;100.00
44934;BME280;30667;43.614;1.442;2023-05-25T01:11:10;99941.34;;;16.45;100.00
44934;BME280;30667;43.614;1.442;2023-05-25T01:13:37;99934.78;;;16.37;100.00
44934;BME280;30667;43.614;1.442;2023-05-25T01:16:04;99946.63;;;16.32;100.00
44934;BME280;30667;43.614;1.442;2023-05-25T01:18:31;99937.31;;;16.33;100.00
44934;BME280;30667;43.614;1.442;2023-05-25T01:21:20;99946.13;;;16.22;100.00
44934;BME280;30667;43.614;1.442;2023-05-25T01:23:55;99953.53;;;16.21;100.00
44934;BME280;30667;43.614;1.442;2023-05-25T01:26:25;99949.34;;;16.24;100.00
44934;BME280;30667;43.614;1.442;2023-05-25T01:28:54;99947.44;;;16.24;100.00
44934;BME280;30667;43.614;1.442;2023-05-25T01:31:21;99950.28;;;16.19;100.00
44934;BME280;30667;43.614;1.442;2023-05-25T01:33:49;99948.81;;;16.13;100.00
44934;BME280;30667;43.614;1.442;2023-05-25T01:36:16;99944.00;;;16.10;100.00
44934;BME280;30667;43.614;1.442;2023-05-25T01:38:42;99952.47;;;16.00;100.00
44934;BME280;30667;43.614;1.442;2023-05-25T01:41:07;99947.66;;;15.96;100.00
44934;BME280;30667;43.614;1.442;2023-05-25T01:43:33;99945.22;;;15.95;100.00
44934;BME280;30667;43.614;1.442;2023-05-25T01:46:08;99952.78;;;15.89;100.00
44934;BME280;30667;43.614;1.442;2023-05-25T01:48:42;99950.66;;;15.86;100.00
44934;BME280;30667;43.614;1.442;2023-05-25T01:51:28;99943.75;;;15.80;100.00
44934;BME280;30667;43.614;1.442;2023-05-25T01:54:06;99941.13;;;15.75;100.00
44934;BME280;30667;43.614;1.442;2023-05-25T01:56:34;99944.47;;;15.72;100.00
44934;BME280;30667;43.614;1.442;2023-05-25T01:59:01;99937.84;;;15.64;100.00
44934;BME280;30667;43.614;1.442;2023-05-25T02:01:28;99940.41;;;15.60;100.00
44934;BME280;30667;43.614;1.442;2023-05-25T02:03:55;99945.88;;;15.60;100.00
44934;BME280;30667;43.614;1.442;2023-05-25T02:06:21;99941.69;;;15.63;100.00
44934;BME280;30667;43.614;1.442;2023-05-25T02:08:46;99944.88;;;15.56;100.00
44934;BME280;30667;43.614;1.442;2023-05-25T02:11:12;99939.72;;;15.55;100.00
44934;BME280;30667;43.614;1.442;2023-05-25T02:13:39;99945.16;;;15.46;100.00
44934;BME280;30667;43.614;1.442;2023-05-25T02:16:05;99944.50;;;15.49;100.00
44934;BME280;30667;43.614;1.442;2023-05-25T02:18:30;99953.03;;;15.48;100.00
44934;BME280;30667;43.614;1.442;2023-05-25T02:20:56;99940.81;;;15.45;100.00
44934;BME280;30667;43.614;1.442;2023-05-25T02:23:21;99949.13;;;15.40;100.00
44934;BME280;30667;43.614;1.442;2023-05-25T02:25:47;99946.09;;;15.41;100.00
44934;BME280;30667;43.614;1.442;2023-05-25T02:28:13;99955.00;;;15.33;100.00
44934;BME280;30667;43.614;1.442;2023-05-25T02:30:39;99958.22;;;15.35;100.00
44934;BME280;30667;43.614;1.442;2023-05-25T02:33:04;99957.34;;;15.26;100.00
44934;BME280;30667;43.614;1.442;2023-05-25T02:35:29;99950.34;;;15.34;100.00
44934;BME280;30667;43.614;1.442;2023-05-25T02:37:55;99958.66;;;15.29;100.00
44934;BME280;30667;43.614;1.442;2023-05-25T02:40:20;99959.28;;;15.25;100.00
44934;BME280;30667;43.614;1.442;2023-05-25T02:42:46;99962.63;;;15.22;100.00
44934;BME280;30667;43.614;1.442;2023-05-25T02:45:11;99961.16;;;15.16;100.00
44934;BME280;30667;43.614;1.442;2023-05-25T02:47:37;99967.56;;;15.20;100.00
44934;BME280;30667;43.614;1.442;2023-05-25T02:50:03;99965.28;;;15.14;100.00
44934;BME280;30667;43.614;1.442;2023-05-25T02:52:28;99957.22;;;15.08;100.00
44934;BME280;30667;43.614;1.442;2023-05-25T02:54:56;99961.19;;;15.02;100.00
44934;BME280;30667;43.614;1.442;2023-05-25T02:57:21;99966.19;;;15.09;100.00
44934;BME280;30667;43.614;1.442;2023-05-25T02:59:48;99971.28;;;15.02;100.00
44934;BME280;30667;43.614;1.442;2023-05-25T03:02:13;99960.22;;;14.98;100.00
44934;BME280;30667;43.614;1.442;2023-05-25T03:04:39;99953.16;;;14.97;100.00
44934;BME280;30667;43.614;1.442;2023-05-25T03:07:06;99959.22;;;14.94;100.00
44934;BME280;30667;43.614;1.442;2023-05-25T03:09:31;99955.69;;;14.94;100.00
44934;BME280;30667;43.614;1.442;2023-05-25T03:11:57;99958.91;;;14.96;100.00
44934;BME280;30667;43.614;1.442;2023-05-25T03:14:22;99957.78;;;14.97;100.00
44934;BME280;30667;43.614;1.442;2023-05-25T03:16:47;99956.47;;;14.94;100.00
44934;BME280;30667;43.614;1.442;2023-05-25T03:19:13;99952.56;;;14.86;100.00
44934;BME280;30667;43.614;1.442;2023-05-25T03:21:38;99945.53;;;14.85;100.00
44934;BME280;30667;43.614;1.442;2023-05-25T03:24:04;99945.00;;;14.83;100.00
44934;BME280;30667;43.614;1.442;2023-05-25T03:26:29;99951.28;;;14.84;100.00
44934;BME280;30667;43.614;1.442;2023-05-25T03:28:56;99947.84;;;14.78;100.00
44934;BME280;30667;43.614;1.442;2023-05-25T03:31:22;99951.38;;;14.79;100.00
44934;BME280;30667;43.614;1.442;2023-05-25T03:33:47;99946.84;;;14.74;100.00
44934;BME280;30667;43.614;1.442;2023-05-25T03:36:13;99961.47;;;14.78;100.00
44934;BME280;30667;43.614;1.442;2023-05-25T03:38:42;99966.13;;;14.78;100.00
44934;BME280;30667;43.614;1.442;2023-05-25T03:41:07;99956.81;;;14.79;100.00
44934;BME280;30667;43.614;1.442;2023-05-25T03:43:33;99967.97;;;14.68;100.00
44934;BME280;30667;43.614;1.442;2023-05-25T03:45:58;99959.97;;;14.72;100.00
44934;BME280;30667;43.614;1.442;2023-05-25T03:48:23;99963.00;;;14.70;100.00
44934;BME280;30667;43.614;1.442;2023-05-25T03:50:49;99963.91;;;14.66;100.00
44934;BME280;30667;43.614;1.442;2023-05-25T03:53:14;99966.75;;;14.61;100.00
44934;BME280;30667;43.614;1.442;2023-05-25T03:55:41;99965.34;;;14.63;100.00
44934;BME280;30667;43.614;1.442;2023-05-25T03:58:06;99970.06;;;14.58;100.00
44934;BME280;30667;43.614;1.442;2023-05-25T04:00:34;99960.22;;;14.62;100.00
44934;BME280;30667;43.614;1.442;2023-05-25T04:03:00;99952.34;;;14.60;100.00
44934;BME280;30667;43.614;1.442;2023-05-25T04:05:26;99945.56;;;14.58;100.00
44934;BME280;30667;43.614;1.442;2023-05-25T04:07:51;99947.91;;;14.50;100.00
44934;BME280;30667;43.614;1.442;2023-05-25T04:10:16;99950.03;;;14.53;100.00
44934;BME280;30667;43.614;1.442;2023-05-25T04:12:42;99951.63;;;14.54;100.00
44934;BME280;30667;43.614;1.442;2023-05-25T04:15:07;99959.00;;;14.54;100.00
44934;BME280;30667;43.614;1.442;2023-05-25T04:17:34;99963.34;;;14.55;100.00
44934;BME280;30667;43.614;1.442;2023-05-25T04:20:01;99961.13;;;14.43;100.00
44934;BME280;30667;43.614;1.442;2023-05-25T04:22:26;99958.19;;;14.53;100.00
44934;BME280;30667;43.614;1.442;2023-05-25T04:24:52;99957.59;;;14.43;100.00
44934;BME280;30667;43.614;1.442;2023-05-25T04:27:18;99961.41;;;14.42;100.00
44934;BME280;30667;43.614;1.442;2023-05-25T04:29:45;99954.34;;;14.41;100.00
44934;BME280;30667;43.614;1.442;2023-05-25T04:32:10;99955.19;;;14.41;100.00
44934;BME280;30667;43.614;1.442;2023-05-25T04:34:39;99954.56;;;14.44;100.00
44934;BME280;30667;43.614;1.442;2023-05-25T04:37:06;99960.00;;;14.44;100.00
44934;BME280;30667;43.614;1.442;2023-05-25T04:39:33;99962.84;;;14.39;100.00
44934;BME280;30667;43.614;1.442;2023-05-25T04:41:58;99959.31;;;14.39;100.00
44934;BME280;30667;43.614;1.442;2023-05-25T04:44:29;99953.19;;;14.33;100.00
44934;BME280;30667;43.614;1.442;2023-05-25T04:46:54;99965.16;;;14.32;100.00
44934;BME280;30667;43.614;1.442;2023-05-25T04:49:20;99965.66;;;14.34;100.00
44934;BME280;30667;43.614;1.442;2023-05-25T04:51:45;99968.69;;;14.32;100.00
44934;BME280;30667;43.614;1.442;2023-05-25T04:54:11;99970.59;;;14.32;100.00
44934;BME280;30667;43.614;1.442;2023-05-25T04:56:36;99970.09;;;14.30;100.00
44934;BME280;30667;43.614;1.442;2023-05-25T04:59:01;99975.56;;;14.30;100.00
44934;BME280;30667;43.614;1.442;2023-05-25T05:01:29;99974.41;;;14.31;100.00
44934;BME280;30667;43.614;1.442;2023-05-25T05:03:54;99985.63;;;14.29;100.00
44934;BME280;30667;43.614;1.442;2023-05-25T05:06:19;99976.34;;;14.30;100.00
44934;BME280;30667;43.614;1.442;2023-05-25T05:08:45;99980.88;;;14.35;100.00
44934;BME280;30667;43.614;1.442;2023-05-25T05:11:11;99984.81;;;14.29;100.00
44934;BME280;30667;43.614;1.442;2023-05-25T05:13:36;99986.94;;;14.32;100.00
44934;BME280;30667;43.614;1.442;2023-05-25T05:16:01;99982.50;;;14.36;100.00
44934;BME280;30667;43.614;1.442;2023-05-25T05:18:27;99988.63;;;14.42;100.00
44934;BME280;30667;43.614;1.442;2023-05-25T05:20:53;99986.81;;;14.37;100.00
44934;BME280;30667;43.614;1.442;2023-05-25T05:23:18;99990.06;;;14.39;100.00
44934;BME280;30667;43.614;1.442;2023-05-25T05:25:44;99984.00;;;14.42;100.00
44934;BME280;30667;43.614;1.442;2023-05-25T05:28:10;99994.97;;;14.51;100.00
44934;BME280;30667;43.614;1.442;2023-05-25T05:30:35;99987.13;;;14.49;100.00
44934;BME280;30667;43.614;1.442;2023-05-25T05:33:01;99992.69;;;14.44;100.00
44934;BME280;30667;43.614;1.442;2023-05-25T05:35:27;99990.16;;;14.48;100.00
44934;BME280;30667;43.614;1.442;2023-05-25T05:37:52;99988.22;;;14.48;100.00
44934;BME280;30667;43.614;1.442;2023-05-25T05:40:18;99981.69;;;14.49;100.00
44934;BME280;30667;43.614;1.442;2023-05-25T05:42:43;99980.56;;;14.50;100.00
44934;BME280;30667;43.614;1.442;2023-05-25T05:45:09;99987.44;;;14.48;100.00
44934;BME280;30667;43.614;1.442;2023-05-25T05:47:34;99990.63;;;14.50;100.00
44934;BME280;30667;43.614;1.442;2023-05-25T05:50:00;99982.69;;;14.53;100.00
44934;BME280;30667;43.614;1.442;2023-05-25T05:52:25;99989.13;;;14.58;100.00
44934;BME280;30667;43.614;1.442;2023-05-25T05:54:50;99983.91;;;14.61;100.00
44934;BME280;30667;43.614;1.442;2023-05-25T05:57:16;99993.97;;;14.75;100.00
44934;BME280;30667;43.614;1.442;2023-05-25T05:59:41;99993.44;;;14.86;100.00
44934;BME280;30667;43.614;1.442;2023-05-25T06:02:07;99992.66;;;15.31;100.00
44934;BME280;30667;43.614;1.442;2023-05-25T06:04:32;99987.03;;;15.50;100.00
44934;BME280;30667;43.614;1.442;2023-05-25T06:06:58;99985.69;;;15.70;100.00
44934;BME280;30667;43.614;1.442;2023-05-25T06:09:23;99982.56;;;15.77;100.00
44934;BME280;30667;43.614;1.442;2023-05-25T06:11:50;99982.34;;;15.73;100.00
44934;BME280;30667;43.614;1.442;2023-05-25T06:14:16;99985.06;;;15.73;100.00
44934;BME280;30667;43.614;1.442;2023-05-25T06:16:41;99981.31;;;15.92;100.00
44934;BME280;30667;43.614;1.442;2023-05-25T06:19:07;99977.84;;;15.69;100.00
44934;BME280;30667;43.614;1.442;2023-05-25T06:21:33;99986.13;;;15.86;100.00
44934;BME280;30667;43.614;1.442;2023-05-25T06:23:58;99982.78;;;15.67;100.00
44934;BME280;30667;43.614;1.442;2023-05-25T06:26:24;99988.25;;;15.89;100.00
44934;BME280;30667;43.614;1.442;2023-05-25T06:28:50;99984.81;;;15.84;100.00
44934;BME280;30667;43.614;1.442;2023-05-25T06:31:15;99986.84;;;16.01;100.00
44934;BME280;30667;43.614;1.442;2023-05-25T06:33:41;99977.63;;;16.28;100.00
44934;BME280;30667;43.614;1.442;2023-05-25T06:36:07;99983.19;;;16.14;100.00
44934;BME280;30667;43.614;1.442;2023-05-25T06:38:33;99982.34;;;16.05;100.00
44934;BME280;30667;43.614;1.442;2023-05-25T06:40:58;99986.59;;;16.28;100.00
44934;BME280;30667;43.614;1.442;2023-05-25T06:43:29;99979.59;;;15.96;100.00
44934;BME280;30667;43.614;1.442;2023-05-25T06:45:54;99981.44;;;15.78;100.00
44934;BME280;30667;43.614;1.442;2023-05-25T06:48:20;99980.50;;;15.60;100.00
44934;BME280;30667;43.614;1.442;2023-05-25T06:50:45;99973.44;;;15.59;100.00
44934;BME280;30667;43.614;1.442;2023-05-25T06:53:11;99978.31;;;15.71;100.00
44934;BME280;30667;43.614;1.442;2023-05-25T06:55:36;99972.81;;;15.85;100.00
44934;BME280;30667;43.614;1.442;2023-05-25T06:58:02;99972.97;;;15.88;100.00
44934;BME280;30667;43.614;1.442;2023-05-25T07:00:27;99972.84;;;15.93;100.00
44934;BME280;30667;43.614;1.442;2023-05-25T07:02:53;99972.59;;;15.81;100.00
44934;BME280;30667;43.614;1.442;2023-05-25T07:05:18;99965.56;;;15.80;100.00
44934;BME280;30667;43.614;1.442;2023-05-25T07:07:43;99969.50;;;15.74;100.00
44934;BME280;30667;43.614;1.442;2023-05-25T07:10:09;99973.97;;;15.70;100.00
44934;BME280;30667;43.614;1.442;2023-05-25T07:12:34;99983.06;;;15.56;100.00
44934;BME280;30667;43.614;1.442;2023-05-25T07:15:00;99985.16;;;15.59;100.00
44934;BME280;30667;43.614;1.442;2023-05-25T07:17:25;99992.22;;;15.60;100.00
44934;BME280;30667;43.614;1.442;2023-05-25T07:19:52;99981.81;;;15.62;100.00
44934;BME280;30667;43.614;1.442;2023-05-25T07:22:18;99977.47;;;15.61;100.00
44934;BME280;30667;43.614;1.442;2023-05-25T07:24:46;99985.31;;;15.63;100.00
44934;BME280;30667;43.614;1.442;2023-05-25T07:27:12;99984.06;;;15.60;100.00
44934;BME280;30667;43.614;1.442;2023-05-25T07:29:38;99989.38;;;15.66;100.00
44934;BME280;30667;43.614;1.442;2023-05-25T07:32:04;99990.34;;;15.70;100.00
44934;BME280;30667;43.614;1.442;2023-05-25T07:34:30;99992.53;;;15.82;100.00
44934;BME280;30667;43.614;1.442;2023-05-25T07:36:56;99997.56;;;15.97;100.00
44934;BME280;30667;43.614;1.442;2023-05-25T07:39:21;100000.81;;;16.08;100.00
44934;BME280;30667;43.614;1.442;2023-05-25T07:41:47;99996.03;;;16.13;100.00
44934;BME280;30667;43.614;1.442;2023-05-25T07:44:12;99993.31;;;16.13;100.00
44934;BME280;30667;43.614;1.442;2023-05-25T07:46:37;99997.81;;;16.18;100.00
44934;BME280;30667;43.614;1.442;2023-05-25T07:49:03;99997.69;;;16.23;100.00
44934;BME280;30667;43.614;1.442;2023-05-25T07:51:28;100001.72;;;16.26;100.00
44934;BME280;30667;43.614;1.442;2023-05-25T07:53:54;99994.97;;;16.32;100.00
44934;BME280;30667;43.614;1.442;2023-05-25T07:56:21;100002.84;;;16.33;100.00
44934;BME280;30667;43.614;1.442;2023-05-25T07:58:47;99999.66;;;16.40;100.00
44934;BME280;30667;43.614;1.442;2023-05-25T08:01:13;99995.16;;;16.44;100.00
44934;BME280;30667;43.614;1.442;2023-05-25T08:03:40;99995.47;;;16.43;100.00
44934;BME280;30667;43.614;1.442;2023-05-25T08:06:05;99995.97;;;16.45;100.00
44934;BME280;30667;43.614;1.442;2023-05-25T08:08:31;100007.72;;;16.54;100.00
44934;BME280;30667;43.614;1.442;2023-05-25T08:10:56;100003.25;;;16.58;100.00
44934;BME280;30667;43.614;1.442;2023-05-25T08:13:22;99999.03;;;16.61;100.00
44934;BME280;30667;43.614;1.442;2023-05-25T08:15:47;99996.63;;;16.59;100.00
44934;BME280;30667;43.614;1.442;2023-05-25T08:18:14;100000.66;;;16.62;100.00
44934;BME280;30667;43.614;1.442;2023-05-25T08:20:39;99998.91;;;16.66;100.00
44934;BME280;30667;43.614;1.442;2023-05-25T08:23:05;99996.84;;;16.80;100.00
44934;BME280;30667;43.614;1.442;2023-05-25T08:25:30;100002.47;;;16.84;100.00
44934;BME280;30667;43.614;1.442;2023-05-25T08:27:56;99997.50;;;16.86;100.00
44934;BME280;30667;43.614;1.442;2023-05-25T08:30:21;99996.53;;;16.82;100.00
44934;BME280;30667;43.614;1.442;2023-05-25T08:32:47;100001.97;;;16.73;100.00
44934;BME280;30667;43.614;1.442;2023-05-25T08:35:12;99993.78;;;16.73;100.00
44934;BME280;30667;43.614;1.442;2023-05-25T08:37:41;99993.66;;;16.87;100.00
44934;BME280;30667;43.614;1.442;2023-05-25T08:40:13;99998.81;;;17.06;100.00
44934;BME280;30667;43.614;1.442;2023-05-25T08:42:41;99985.78;;;17.12;100.00
44934;BME280;30667;43.614;1.442;2023-05-25T08:45:07;100000.75;;;17.14;100.00
44934;BME280;30667;43.614;1.442;2023-05-25T08:47:35;100000.41;;;17.24;100.00
44934;BME280;30667;43.614;1.442;2023-05-25T08:50:06;100000.59;;;17.28;100.00
44934;BME280;30667;43.614;1.442;2023-05-25T08:52:34;99995.88;;;17.37;100.00
44934;BME280;30667;43.614;1.442;2023-05-25T08:55:03;100008.91;;;17.40;100.00
44934;BME280;30667;43.614;1.442;2023-05-25T08:57:48;100005.22;;;17.45;100.00
44934;BME280;30667;43.614;1.442;2023-05-25T09:00:22;100007.50;;;17.34;100.00
44934;BME280;30667;43.614;1.442;2023-05-25T09:02:59;100009.25;;;17.30;100.00
44934;BME280;30667;43.614;1.442;2023-05-25T09:05:27;100013.59;;;17.49;100.00
44934;BME280;30667;43.614;1.442;2023-05-25T09:07:53;100007.47;;;17.43;100.00
44934;BME280;30667;43.614;1.442;2023-05-25T09:10:22;100012.31;;;17.46;100.00
44934;BME280;30667;43.614;1.442;2023-05-25T09:12:49;100000.72;;;17.49;100.00
44934;BME280;30667;43.614;1.442;2023-05-25T09:15:15;100000.53;;;17.54;100.00
44934;BME280;30667;43.614;1.442;2023-05-25T09:17:41;100011.00;;;17.43;100.00
44934;BME280;30667;43.614;1.442;2023-05-25T09:20:10;100000.56;;;17.37;100.00
44934;BME280;30667;43.614;1.442;2023-05-25T09:22:37;100008.91;;;17.40;100.00
44934;BME280;30667;43.614;1.442;2023-05-25T09:25:05;100001.97;;;17.60;100.00
44934;BME280;30667;43.614;1.442;2023-05-25T09:27:35;100008.72;;;17.72;100.00
44934;BME280;30667;43.614;1.442;2023-05-25T09:30:03;100006.63;;;17.69;100.00
44934;BME280;30667;43.614;1.442;2023-05-25T09:32:29;100006.47;;;17.65;100.00
44934;BME280;30667;43.614;1.442;2023-05-25T09:34:55;100004.53;;;17.66;100.00
44934;BME280;30667;43.614;1.442;2023-05-25T09:37:22;99996.16;;;17.71;100.00
44934;BME280;30667;43.614;1.442;2023-05-25T09:39:50;99985.69;;;17.90;100.00
44934;BME280;30667;43.614;1.442;2023-05-25T09:42:16;99992.72;;;18.00;100.00
44934;BME280;30667;43.614;1.442;2023-05-25T09:44:42;99980.47;;;17.97;100.00
44934;BME280;30667;43.614;1.442;2023-05-25T09:47:08;99983.38;;;17.84;100.00
44934;BME280;30667;43.614;1.442;2023-05-25T09:49:34;99984.69;;;17.95;100.00
44934;BME280;30667;43.614;1.442;2023-05-25T09:52:00;99984.19;;;17.93;100.00
44934;BME280;30667;43.614;1.442;2023-05-25T09:54:26;99976.91;;;18.06;100.00
44934;BME280;30667;43.614;1.442;2023-05-25T09:56:52;99983.00;;;18.11;100.00
44934;BME280;30667;43.614;1.442;2023-05-25T09:59:17;99994.63;;;18.08;100.00
44934;BME280;30667;43.614;1.442;2023-05-25T10:01:42;99986.72;;;18.07;100.00
44934;BME280;30667;43.614;1.442;2023-05-25T10:04:15;99984.25;;;18.14;100.00
44934;BME280;30667;43.614;1.442;2023-05-25T10:06:40;99988.41;;;18.29;100.00
44934;BME280;30667;43.614;1.442;2023-05-25T10:09:07;99990.75;;;18.39;100.00
44934;BME280;30667;43.614;1.442;2023-05-25T10:11:37;99991.38;;;18.45;100.00
44934;BME280;30667;43.614;1.442;2023-05-25T10:14:06;99993.28;;;18.44;100.00
44934;BME280;30667;43.614;1.442;2023-05-25T10:16:32;99992.16;;;18.45;100.00
44934;BME280;30667;43.614;1.442;2023-05-25T10:19:18;99995.78;;;18.58;100.00
44934;BME280;30667;43.614;1.442;2023-05-25T10:21:50;99996.13;;;18.57;100.00
44934;BME280;30667;43.614;1.442;2023-05-25T10:24:41;99995.78;;;18.58;100.00
44934;BME280;30667;43.614;1.442;2023-05-25T10:27:13;99992.06;;;18.63;100.00
44934;BME280;30667;43.614;1.442;2023-05-25T10:29:43;99997.94;;;18.52;100.00
44934;BME280;30667;43.614;1.442;2023-05-25T10:32:10;99993.13;;;18.49;100.00
44934;BME280;30667;43.614;1.442;2023-05-25T10:34:35;100001.66;;;18.48;100.00
44934;BME280;30667;43.614;1.442;2023-05-25T10:37:02;99999.59;;;18.45;100.00
44934;BME280;30667;43.614;1.442;2023-05-25T10:39:28;99999.41;;;18.50;100.00
44934;BME280;30667;43.614;1.442;2023-05-25T10:41:54;100003.75;;;18.51;100.00
44934;BME280;30667;43.614;1.442;2023-05-25T10:44:20;100000.34;;;18.54;100.00
44934;BME280;30667;43.614;1.442;2023-05-25T10:46:46;100013.22;;;18.54;100.00
44934;BME280;30667;43.614;1.442;2023-05-25T10:49:12;100009.56;;;18.49;100.00
44934;BME280;30667;43.614;1.442;2023-05-25T10:51:41;100006.75;;;18.58;100.00
44934;BME280;30667;43.614;1.442;2023-05-25T10:54:12;100002.00;;;18.46;100.00
44934;BME280;30667;43.614;1.442;2023-05-25T10:57:18;100000.03;;;18.56;100.00
44934;BME280;30667;43.614;1.442;2023-05-25T10:59:48;100013.03;;;18.59;100.00
44934;BME280;30667;43.614;1.442;2023-05-25T11:02:15;100009.28;;;18.63;100.00
44934;BME280;30667;43.614;1.442;2023-05-25T11:04:40;100012.84;;;18.64;100.00
44934;BME280;30667;43.614;1.442;2023-05-25T11:07:07;100017.25;;;18.56;100.00
44934;BME280;30667;43.614;1.442;2023-05-25T11:09:40;100013.88;;;18.50;100.00
44934;BME280;30667;43.614;1.442;2023-05-25T11:12:16;100019.78;;;18.61;100.00
44934;BME280;30667;43.614;1.442;2023-05-25T11:14:42;100007.88;;;18.87;100.00
44934;BME280;30667;43.614;1.442;2023-05-25T11:17:18;100012.56;;;18.86;100.00
44934;BME280;30667;43.614;1.442;2023-05-25T11:19:49;100012.16;;;18.97;100.00
44934;BME280;30667;43.614;1.442;2023-05-25T11:22:32;100012.91;;;19.06;100.00
44934;BME280;30667;43.614;1.442;2023-05-25T11:25:03;100016.97;;;19.00;100.00
44934;BME280;30667;43.614;1.442;2023-05-25T11:27:47;100024.94;;;18.93;100.00
44934;BME280;30667;43.614;1.442;2023-05-25T11:30:18;100023.09;;;18.76;100.00
44934;BME280;30667;43.614;1.442;2023-05-25T11:32:49;100020.97;;;18.81;100.00
44934;BME280;30667;43.614;1.442;2023-05-25T11:35:15;100019.34;;;18.80;100.00
44934;BME280;30667;43.614;1.442;2023-05-25T11:37:41;100010.28;;;18.88;100.00
44934;BME280;30667;43.614;1.442;2023-05-25T11:40:13;100008.38;;;18.89;100.00
44934;BME280;30667;43.614;1.442;2023-05-25T11:42:40;100015.09;;;18.92;100.00
44934;BME280;30667;43.614;1.442;2023-05-25T11:45:10;100011.25;;;18.93;100.00
44934;BME280;30667;43.614;1.442;2023-05-25T11:47:35;100010.91;;;18.94;100.00
44934;BME280;30667;43.614;1.442;2023-05-25T11:50:01;100011.38;;;18.96;100.00
44934;BME280;30667;43.614;1.442;2023-05-25T11:52:26;100002.69;;;18.94;100.00
44934;BME280;30667;43.614;1.442;2023-05-25T11:54:52;100002.81;;;18.98;100.00
44934;BME280;30667;43.614;1.442;2023-05-25T11:57:19;100001.00;;;19.23;100.00
44934;BME280;30667;43.614;1.442;2023-05-25T11:59:57;100004.88;;;19.01;100.00
44934;BME280;30667;43.614;1.442;2023-05-25T12:02:25;100004.59;;;18.94;100.00
44934;BME280;30667;43.614;1.442;2023-05-25T12:04:57;99991.94;;;18.89;100.00
44934;BME280;30667;43.614;1.442;2023-05-25T12:07:24;99996.25;;;18.90;100.00
44934;BME280;30667;43.614;1.442;2023-05-25T12:09:51;99990.50;;;19.04;100.00
44934;BME280;30667;43.614;1.442;2023-05-25T12:12:16;99990.41;;;19.13;100.00
44934;BME280;30667;43.614;1.442;2023-05-25T12:14:48;99994.84;;;19.26;100.00
44934;BME280;30667;43.614;1.442;2023-05-25T12:17:16;99987.84;;;19.16;100.00
44934;BME280;30667;43.614;1.442;2023-05-25T12:19:42;99992.16;;;19.17;100.00
44934;BME280;30667;43.614;1.442;2023-05-25T12:22:08;99994.09;;;19.17;100.00
44934;BME280;30667;43.614;1.442;2023-05-25T12:24:34;99985.81;;;19.04;100.00
44934;BME280;30667;43.614;1.442;2023-05-25T12:26:59;99980.88;;;18.98;100.00
44934;BME280;30667;43.614;1.442;2023-05-25T12:29:27;99979.41;;;19.00;100.00
44934;BME280;30667;43.614;1.442;2023-05-25T12:32:00;99981.66;;;18.98;100.00
44934;BME280;30667;43.614;1.442;2023-05-25T12:34:26;99991.69;;;19.15;100.00
44934;BME280;30667;43.614;1.442;2023-05-25T12:36:54;99989.38;;;19.38;100.00
44934;BME280;30667;43.614;1.442;2023-05-25T12:41:59;99975.13;;;19.12;100.00
44934;BME280;30667;43.614;1.442;2023-05-25T12:44:28;99983.38;;;19.24;100.00
44934;BME280;30667;43.614;1.442;2023-05-25T12:46:56;99981.69;;;19.19;100.00
44934;BME280;30667;43.614;1.442;2023-05-25T12:51:48;99972.75;;;19.22;100.00
44934;BME280;30667;43.614;1.442;2023-05-25T12:54:13;99966.59;;;19.26;100.00